createdAt,value
2019-05-22T00:00:30.861Z,27.70
2019-05-22T00:03:02.265Z,25.40
2019-05-22T00:05:34.907Z,26.73
2019-05-22T00:08:23.582Z,26.07
2019-05-22T00:10:54.604Z,28.27
2019-05-22T00:13:25.850Z,25.53
2019-05-22T00:15:57.411Z,25.67
2019-05-22T00:18:28.212Z,27.07
2019-05-22T00:20:57.590Z,29.80
2019-05-22T00:23:27.507Z,28.97
2019-05-22T00:25:56.377Z,29.77
2019-05-22T00:28:25.651Z,27.83
2019-05-22T00:30:55.729Z,28.13
2019-05-22T00:33:25.243Z,30.03
2019-05-22T00:35:56.214Z,26.80
2019-05-22T00:38:25.597Z,30.23
2019-05-22T00:40:54.960Z,29.67
2019-05-22T00:43:34.267Z,31.17
2019-05-22T00:46:08.469Z,28.20
2019-05-22T00:48:38.666Z,30.43
2019-05-22T00:51:16.114Z,29.33
2019-05-22T00:53:55.746Z,31.77
2019-05-22T00:56:28.098Z,33.10
2019-05-22T00:58:59.785Z,31.40
2019-05-22T01:01:32.483Z,31.97
2019-05-22T01:04:22.493Z,29.73
2019-05-22T01:07:05.069Z,30.73
2019-05-22T01:09:39.941Z,31.83
2019-05-22T01:12:18.994Z,31.43
2019-05-22T01:14:49.937Z,31.20
2019-05-22T01:17:21.461Z,31.00
2019-05-22T01:19:54.610Z,29.63
2019-05-22T01:22:26.465Z,30.33
2019-05-22T01:24:56.888Z,29.93
2019-05-22T01:27:26.819Z,32.40
2019-05-22T01:29:57.351Z,33.20
2019-05-22T01:32:37.543Z,31.33
2019-05-22T01:35:09.251Z,31.57
2019-05-22T01:37:39.620Z,30.07
2019-05-22T01:40:20.901Z,33.30
2019-05-22T01:42:52.661Z,30.30
2019-05-22T01:45:23.482Z,29.57
2019-05-22T01:47:56.793Z,32.97
2019-05-22T01:50:41.459Z,32.87
2019-05-22T01:53:12.270Z,33.47
2019-05-22T01:55:41.653Z,31.57
2019-05-22T01:58:11.681Z,33.07
2019-05-22T02:00:42.372Z,33.00
2019-05-22T02:03:12.033Z,32.97
2019-05-22T02:05:41.475Z,34.27
2019-05-22T02:08:12.728Z,33.97
2019-05-22T02:10:42.667Z,32.43
2019-05-22T02:13:14.211Z,32.67
2019-05-22T02:15:43.591Z,32.30
2019-05-22T02:18:15.170Z,36.53
2019-05-22T02:20:45.151Z,34.23
2019-05-22T02:23:15.340Z,38.67
2019-05-22T02:25:44.980Z,33.93
2019-05-22T02:28:15.114Z,34.00
2019-05-22T02:30:46.249Z,34.73
2019-05-22T02:33:19.029Z,35.20
2019-05-22T02:35:49.495Z,34.33
2019-05-22T02:38:18.615Z,33.47
2019-05-22T02:40:49.348Z,37.10
2019-05-22T02:43:18.988Z,33.53
2019-05-22T02:45:47.695Z,39.70
2019-05-22T02:48:17.919Z,34.33
2019-05-22T02:50:48.431Z,33.23
2019-05-22T02:53:17.744Z,34.33
2019-05-22T02:55:47.532Z,35.23
2019-05-22T02:58:18.459Z,38.97
2019-05-22T03:00:56.390Z,35.43
2019-05-22T03:03:26.902Z,39.97
2019-05-22T03:05:56.380Z,35.77
2019-05-22T03:08:33.895Z,36.37
2019-05-22T03:11:03.975Z,37.43
2019-05-22T03:14:00.039Z,40.27
2019-05-22T03:16:48.218Z,39.37
2019-05-22T03:19:20.753Z,34.70
2019-05-22T03:21:49.740Z,35.37
2019-05-22T03:24:19.007Z,39.97
2019-05-22T03:26:52.532Z,42.20
2019-05-22T03:29:36.358Z,37.17
2019-05-22T03:32:06.222Z,42.77
2019-05-22T03:34:36.225Z,43.00
2019-05-22T03:37:07.291Z,39.40
2019-05-22T03:39:36.071Z,40.57
2019-05-22T03:42:06.448Z,41.90
2019-05-22T03:44:36.741Z,43.53
2019-05-22T03:47:07.373Z,42.37
2019-05-22T03:49:36.778Z,39.87
2019-05-22T03:52:06.469Z,42.27
2019-05-22T03:54:36.511Z,44.10
2019-05-22T03:57:06.090Z,42.03
2019-05-22T03:59:36.255Z,40.13
2019-05-22T04:02:05.861Z,40.60
2019-05-22T04:04:41.339Z,39.93
2019-05-22T04:07:15.412Z,44.87
2019-05-22T04:09:45.138Z,42.27
2019-05-22T04:12:14.433Z,40.87
2019-05-22T04:14:44.043Z,41.40
2019-05-22T04:17:16.111Z,40.93
2019-05-22T04:19:49.991Z,44.43
2019-05-22T04:22:17.217Z,42.43
2019-05-22T04:24:47.435Z,46.13
2019-05-22T04:27:17.047Z,43.17
2019-05-22T04:29:47.538Z,37.97
2019-05-22T04:32:23.295Z,42.43
2019-05-22T04:34:54.499Z,39.13
2019-05-22T04:37:25.342Z,43.27
2019-05-22T04:39:56.121Z,38.40
2019-05-22T04:42:27.288Z,38.17
2019-05-22T04:45:15.672Z,40.30
2019-05-22T04:48:05.516Z,42.33
2019-05-22T04:50:34.256Z,43.23
2019-05-22T04:53:02.852Z,46.27
2019-05-22T04:55:33.183Z,47.87
2019-05-22T04:58:04.675Z,41.03
2019-05-22T05:00:35.224Z,43.47
2019-05-22T05:03:05.536Z,42.70
2019-05-22T05:05:49.915Z,41.10
2019-05-22T05:08:19.175Z,45.50
2019-05-22T05:10:52.702Z,43.80
2019-05-22T05:13:21.509Z,41.43
2019-05-22T05:15:50.099Z,44.60
2019-05-22T05:18:18.741Z,44.57
2019-05-22T05:20:47.573Z,44.70
2019-05-22T05:23:16.919Z,42.87
2019-05-22T05:25:45.896Z,40.70
2019-05-22T05:28:15.485Z,41.17
2019-05-22T05:30:45.116Z,42.00
2019-05-22T05:33:13.933Z,42.90
2019-05-22T05:35:43.685Z,41.17
2019-05-22T05:38:12.837Z,38.60
2019-05-22T05:40:42.340Z,38.27
2019-05-22T05:43:13.698Z,38.13
2019-05-22T05:45:44.593Z,40.17
2019-05-22T05:48:16.223Z,41.07
2019-05-22T05:51:07.306Z,38.43
2019-05-22T05:53:55.370Z,36.80
2019-05-22T05:56:27.068Z,34.47
2019-05-22T05:58:58.135Z,36.83
2019-05-22T06:01:32.512Z,34.87
2019-05-22T06:04:02.723Z,35.80
2019-05-22T06:06:36.179Z,34.33
2019-05-22T06:09:08.758Z,34.67
2019-05-22T06:11:50.593Z,32.30
2019-05-22T06:14:28.527Z,31.50
2019-05-22T06:17:23.325Z,34.23
2019-05-22T06:20:11.850Z,31.63
2019-05-22T06:22:42.924Z,31.90
2019-05-22T06:25:14.181Z,33.60
2019-05-22T06:27:46.646Z,33.23
2019-05-22T06:30:21.861Z,36.93
2019-05-22T06:33:12.406Z,32.93
2019-05-22T06:35:42.582Z,31.23
2019-05-22T06:38:39.017Z,35.10
2019-05-22T06:41:08.784Z,28.27
2019-05-22T06:43:41.207Z,33.97
2019-05-22T06:46:12.642Z,28.07
2019-05-22T06:48:42.336Z,32.77
2019-05-22T06:51:19.413Z,37.60
2019-05-22T06:53:41.862Z,30.50
2019-05-22T06:56:10.474Z,33.57
2019-05-22T06:58:39.266Z,33.40
2019-05-22T07:01:09.555Z,32.97
2019-05-22T07:03:38.410Z,32.50
2019-05-22T07:06:07.782Z,32.33
2019-05-22T07:08:38.479Z,29.93
2019-05-22T07:11:08.757Z,36.27
2019-05-22T07:13:37.795Z,31.70
2019-05-22T07:16:06.765Z,29.90
2019-05-22T07:18:36.395Z,28.97
2019-05-22T07:21:06.867Z,31.60
2019-05-22T07:23:36.612Z,28.87
2019-05-22T07:26:06.096Z,32.77
2019-05-22T07:28:36.437Z,28.60
2019-05-22T07:31:05.390Z,31.43
2019-05-22T07:33:35.225Z,34.23
2019-05-22T07:36:09.936Z,31.63
2019-05-22T07:38:35.307Z,31.37
2019-05-22T07:41:06.330Z,33.80
2019-05-22T07:43:35.254Z,32.33
2019-05-22T07:46:04.528Z,33.30
2019-05-22T07:48:33.944Z,28.63
2019-05-22T07:51:04.080Z,36.60
2019-05-22T07:53:33.676Z,36.67
2019-05-22T07:56:06.109Z,34.87
2019-05-22T07:58:37.660Z,34.33
2019-05-22T08:01:07.375Z,30.30
2019-05-22T08:03:37.397Z,32.67
2019-05-22T08:06:08.188Z,31.37
2019-05-22T08:08:37.224Z,34.00
2019-05-22T08:11:07.611Z,33.30
2019-05-22T08:13:38.524Z,32.10
2019-05-22T08:16:08.447Z,29.23
2019-05-22T08:18:37.966Z,30.80
2019-05-22T08:21:07.985Z,27.33
2019-05-22T08:23:37.076Z,35.90
2019-05-22T08:26:10.059Z,31.23
2019-05-22T08:28:40.160Z,36.07
2019-05-22T08:31:10.874Z,30.07
2019-05-22T08:33:39.961Z,29.97
2019-05-22T08:36:09.828Z,35.03
2019-05-22T08:38:39.837Z,35.03
2019-05-22T08:41:10.125Z,28.20
2019-05-22T08:44:11.408Z,29.60
2019-05-22T08:46:13.972Z,29.73
2019-05-22T08:48:48.911Z,30.07
2019-05-22T08:51:16.529Z,33.17
2019-05-22T08:53:47.836Z,28.13
2019-05-22T08:56:17.920Z,28.60
2019-05-22T08:58:48.852Z,33.00
2019-05-22T09:01:17.628Z,29.17
2019-05-22T09:03:47.209Z,27.43
2019-05-22T09:06:15.837Z,27.33
2019-05-22T09:08:44.649Z,26.83
2019-05-22T09:11:14.014Z,25.73
2019-05-22T09:13:43.169Z,25.33
2019-05-22T09:16:14.685Z,23.60
2019-05-22T09:19:07.622Z,25.47
2019-05-22T09:21:40.687Z,26.63
2019-05-22T09:24:14.201Z,27.10
2019-05-22T09:27:09.516Z,28.13
2019-05-22T09:29:38.410Z,26.67
2019-05-22T09:32:08.672Z,25.13
2019-05-22T09:34:38.463Z,25.87
2019-05-22T09:37:07.710Z,26.20
2019-05-22T09:39:37.296Z,26.23
2019-05-22T09:42:06.301Z,23.67
2019-05-22T09:44:35.306Z,24.00
2019-05-22T09:47:05.050Z,21.67
2019-05-22T09:49:33.870Z,22.67
2019-05-22T09:52:04.607Z,23.77
2019-05-22T09:54:33.603Z,21.27
2019-05-22T09:57:06.175Z,20.40
2019-05-22T09:59:36.865Z,24.90
2019-05-22T10:02:06.766Z,21.63
2019-05-22T10:04:38.683Z,21.27
2019-05-22T10:07:08.299Z,28.60
2019-05-22T10:09:37.830Z,25.30
2019-05-22T10:12:08.150Z,23.13
2019-05-22T10:14:37.799Z,21.20
2019-05-22T10:17:09.342Z,17.97
2019-05-22T10:19:38.484Z,23.17
2019-05-22T10:22:09.602Z,22.83
2019-05-22T10:24:39.237Z,22.33
2019-05-22T10:27:10.523Z,20.63
2019-05-22T10:29:39.640Z,22.53
2019-05-22T10:32:09.054Z,21.90
2019-05-22T10:34:37.735Z,20.80
2019-05-22T10:37:08.661Z,21.40
2019-05-22T10:39:38.934Z,20.63
2019-05-22T10:42:07.856Z,20.23
2019-05-22T10:44:36.603Z,21.60
2019-05-22T10:47:06.559Z,18.77
2019-05-22T10:49:35.989Z,20.17
2019-05-22T10:52:06.138Z,19.23
2019-05-22T10:54:36.292Z,22.40
2019-05-22T10:57:08.475Z,18.53
2019-05-22T10:59:37.502Z,20.63
2019-05-22T11:02:08.377Z,20.03
2019-05-22T11:04:37.925Z,21.50
2019-05-22T11:07:08.175Z,19.20
2019-05-22T11:09:37.333Z,21.87
2019-05-22T11:12:06.712Z,17.53
2019-05-22T11:14:36.074Z,23.87
2019-05-22T11:17:05.431Z,25.17
2019-05-22T11:19:34.589Z,21.70
2019-05-22T11:22:10.363Z,18.60
2019-05-22T11:24:40.962Z,20.17
2019-05-22T11:27:10.530Z,18.80
2019-05-22T11:29:40.365Z,27.50
2019-05-22T11:32:10.449Z,21.17
2019-05-22T11:34:39.457Z,21.63
2019-05-22T11:37:09.159Z,20.90
2019-05-22T11:39:41.156Z,26.77
2019-05-22T11:42:10.697Z,18.63
2019-05-22T11:44:40.793Z,19.80
2019-05-22T11:47:15.777Z,18.00
2019-05-22T11:49:44.470Z,16.97
2019-05-22T11:52:14.467Z,20.80
2019-05-22T11:54:43.794Z,21.93
2019-05-22T11:57:13.682Z,18.70
2019-05-22T11:59:42.745Z,18.63
2019-05-22T12:02:16.987Z,19.23
2019-05-22T12:04:48.405Z,18.27
2019-05-22T12:07:16.257Z,21.13
2019-05-22T12:09:46.414Z,18.90
2019-05-22T12:12:16.606Z,19.37
2019-05-22T12:14:45.477Z,22.57
2019-05-22T12:17:14.906Z,20.67
2019-05-22T12:19:43.709Z,21.33
2019-05-22T12:22:13.574Z,19.23
2019-05-22T12:24:42.651Z,18.43
2019-05-22T12:27:12.369Z,19.87
2019-05-22T12:29:44.005Z,18.73
2019-05-22T12:32:14.605Z,17.53
2019-05-22T12:34:43.698Z,20.27
2019-05-22T12:37:13.003Z,18.40
2019-05-22T12:39:43.344Z,16.33
2019-05-22T12:42:14.432Z,16.30
2019-05-22T12:44:45.829Z,17.07
2019-05-22T12:47:15.802Z,17.30
2019-05-22T12:49:45.491Z,15.90
2019-05-22T12:52:15.049Z,15.47
2019-05-22T12:54:48.225Z,15.20
2019-05-22T12:57:14.444Z,14.83
2019-05-22T12:59:45.719Z,17.17
2019-05-22T13:02:16.412Z,13.87
2019-05-22T13:04:46.624Z,14.30
2019-05-22T13:07:35.052Z,11.53
2019-05-22T13:10:08.345Z,12.60
2019-05-22T13:12:40.663Z,10.90
2019-05-22T13:15:10.989Z,11.90
2019-05-22T13:17:41.204Z,11.33
2019-05-22T13:20:12.986Z,9.97
2019-05-22T13:22:47.950Z,9.60
2019-05-22T13:25:23.482Z,9.10
2019-05-22T13:27:53.809Z,10.87
2019-05-22T13:30:28.369Z,7.60
2019-05-22T13:32:57.599Z,7.90
2019-05-22T13:35:27.101Z,7.70
2019-05-22T13:38:07.448Z,9.43
2019-05-22T13:40:37.943Z,7.40
2019-05-22T13:43:09.192Z,8.13
2019-05-22T13:45:38.439Z,7.60
2019-05-22T13:48:07.921Z,7.80
2019-05-22T13:50:36.840Z,6.57
2019-05-22T13:53:08.605Z,6.87
2019-05-22T13:55:37.570Z,6.40
2019-05-22T13:58:07.146Z,10.10
2019-05-22T14:00:39.483Z,7.20
2019-05-22T14:03:08.778Z,6.77
2019-05-22T14:05:38.210Z,6.00
2019-05-22T14:08:09.595Z,7.10
2019-05-22T14:10:40.047Z,7.20
2019-05-22T14:13:09.209Z,7.33
2019-05-22T14:15:50.530Z,7.57
2019-05-22T14:18:10.873Z,7.90
2019-05-22T14:20:40.239Z,8.60
2019-05-22T14:23:09.502Z,6.77
2019-05-22T14:25:39.249Z,5.60
2019-05-22T14:28:08.861Z,7.10
2019-05-22T14:30:39.226Z,7.30
2019-05-22T14:33:08.112Z,9.13
2019-05-22T14:35:48.475Z,6.20
2019-05-22T14:38:12.356Z,5.60
2019-05-22T14:40:41.782Z,5.73
2019-05-22T14:43:11.532Z,6.57
2019-05-22T14:45:53.251Z,6.67
2019-05-22T14:48:23.136Z,5.90
2019-05-22T14:50:52.306Z,5.77
2019-05-22T14:53:21.669Z,5.60
2019-05-22T14:55:51.765Z,6.10
2019-05-22T14:58:20.613Z,6.73
2019-05-22T15:00:50.770Z,8.50
2019-05-22T15:03:22.353Z,6.77
2019-05-22T15:05:52.154Z,7.57
2019-05-22T15:08:20.858Z,7.80
2019-05-22T15:10:50.125Z,6.60
2019-05-22T15:13:22.917Z,7.50
2019-05-22T15:15:52.070Z,9.23
2019-05-22T15:18:20.736Z,7.20
2019-05-22T15:21:00.146Z,7.37
2019-05-22T15:23:49.095Z,7.67
2019-05-22T15:26:18.355Z,7.27
2019-05-22T15:28:47.055Z,6.93
2019-05-22T15:31:16.380Z,6.87
2019-05-22T15:33:45.338Z,7.50
2019-05-22T15:36:17.269Z,8.20
2019-05-22T15:38:48.863Z,7.53
2019-05-22T15:41:18.545Z,6.90
2019-05-22T15:43:52.858Z,7.60
2019-05-22T15:46:21.395Z,7.87
2019-05-22T15:48:51.699Z,7.73
2019-05-22T15:51:24.242Z,6.87
2019-05-22T15:53:57.070Z,5.93
2019-05-22T15:56:29.012Z,5.70
2019-05-22T15:58:58.143Z,5.70
2019-05-22T16:01:29.890Z,7.30
2019-05-22T16:04:01.319Z,6.10
2019-05-22T16:06:33.364Z,6.73
2019-05-22T16:09:04.454Z,7.90
2019-05-22T16:11:34.219Z,7.03
2019-05-22T16:14:03.698Z,6.93
2019-05-22T16:16:35.266Z,5.33
2019-05-22T16:19:05.913Z,9.20
2019-05-22T16:21:38.648Z,6.47
2019-05-22T16:24:08.097Z,7.83
2019-05-22T16:26:38.072Z,6.03
2019-05-22T16:29:08.143Z,8.73
2019-05-22T16:31:39.615Z,7.03
2019-05-22T16:34:08.601Z,6.33
2019-05-22T16:37:12.746Z,6.13
2019-05-22T16:39:50.473Z,6.70
2019-05-22T16:42:31.146Z,6.87
2019-05-22T16:45:00.504Z,6.43
2019-05-22T16:47:33.533Z,5.47
2019-05-22T16:50:00.872Z,6.37
2019-05-22T16:52:29.995Z,7.47
2019-05-22T16:55:00.020Z,6.90
2019-05-22T16:57:31.561Z,6.30
2019-05-22T17:00:01.384Z,6.60
2019-05-22T17:02:32.215Z,5.27
2019-05-22T17:05:02.201Z,6.03
2019-05-22T17:07:33.109Z,7.50
2019-05-22T17:10:05.221Z,7.03
2019-05-22T17:12:36.242Z,5.40
2019-05-22T17:15:08.857Z,5.43
2019-05-22T17:17:37.564Z,5.53
2019-05-22T17:20:12.474Z,5.50
2019-05-22T17:22:41.482Z,6.90
2019-05-22T17:25:10.493Z,5.90
2019-05-22T17:27:39.822Z,6.27
2019-05-22T17:30:12.003Z,5.90
2019-05-22T17:32:41.447Z,5.83
2019-05-22T17:35:11.904Z,7.97
2019-05-22T17:37:42.047Z,9.67
2019-05-22T17:40:12.296Z,8.43
2019-05-22T17:42:43.642Z,8.33
2019-05-22T17:45:13.079Z,8.27
2019-05-22T17:47:43.157Z,10.37
2019-05-22T17:50:26.223Z,9.10
2019-05-22T17:52:45.946Z,8.73
2019-05-22T17:55:16.249Z,9.00
2019-05-22T17:57:45.415Z,9.30
2019-05-22T18:00:19.935Z,8.47
2019-05-22T18:02:49.234Z,8.53
2019-05-22T18:05:19.751Z,9.77
2019-05-22T18:07:48.792Z,8.73
2019-05-22T18:10:20.627Z,8.93
2019-05-22T18:12:49.195Z,7.60
2019-05-22T18:15:18.750Z,7.67
2019-05-22T18:17:48.769Z,7.47
2019-05-22T18:20:18.684Z,7.80
2019-05-22T18:22:47.956Z,7.17
2019-05-22T18:25:17.839Z,6.90
2019-05-22T18:27:47.508Z,7.53
2019-05-22T18:30:17.735Z,8.13
2019-05-22T18:32:47.165Z,9.63
2019-05-22T18:35:16.289Z,7.67
2019-05-22T18:37:44.924Z,6.40
2019-05-22T18:40:14.809Z,7.07
2019-05-22T18:42:43.793Z,7.83
2019-05-22T18:45:13.812Z,7.03
2019-05-22T18:47:42.828Z,7.97
2019-05-22T18:50:11.762Z,8.40
2019-05-22T18:52:46.644Z,6.77
2019-05-22T18:55:16.914Z,7.43
2019-05-22T18:57:46.536Z,6.70
2019-05-22T19:00:19.921Z,6.23
2019-05-22T19:02:48.683Z,7.33
2019-05-22T19:05:20.471Z,9.03
2019-05-22T19:07:50.422Z,8.33
2019-05-22T19:10:19.829Z,7.83
2019-05-22T19:12:49.440Z,8.47
2019-05-22T19:15:19.245Z,7.30
2019-05-22T19:17:48.503Z,7.30
2019-05-22T19:20:18.519Z,7.87
2019-05-22T19:22:58.994Z,7.50
2019-05-22T19:25:18.107Z,6.93
2019-05-22T19:27:46.830Z,8.43
2019-05-22T19:30:18.672Z,7.50
2019-05-22T19:32:48.754Z,8.10
2019-05-22T19:35:18.002Z,12.30
2019-05-22T19:37:47.780Z,8.83
2019-05-22T19:40:17.238Z,9.77
2019-05-22T19:42:46.386Z,8.27
2019-05-22T19:45:15.770Z,8.73
2019-05-22T19:47:53.027Z,8.43
2019-05-22T19:50:24.044Z,8.23
2019-05-22T19:52:55.073Z,13.93
2019-05-22T19:55:27.934Z,8.07
2019-05-22T19:57:57.350Z,10.60
2019-05-22T20:00:36.103Z,8.67
2019-05-22T20:03:06.384Z,10.50
2019-05-22T20:05:35.433Z,15.80
2019-05-22T20:08:05.674Z,8.40
2019-05-22T20:10:34.438Z,7.93
2019-05-22T20:13:06.048Z,14.57
2019-05-22T20:15:35.339Z,16.13
2019-05-22T20:18:05.030Z,10.40
2019-05-22T20:20:34.227Z,12.23
2019-05-22T20:23:04.486Z,11.37
2019-05-22T20:25:34.099Z,11.60
2019-05-22T20:28:03.676Z,10.63
2019-05-22T20:30:33.000Z,11.23
2019-05-22T20:33:01.568Z,9.63
2019-05-22T20:35:31.132Z,8.77
2019-05-22T20:38:00.550Z,11.57
2019-05-22T20:40:30.506Z,12.40
2019-05-22T20:42:59.994Z,8.20
2019-05-22T20:45:31.108Z,9.50
2019-05-22T20:48:12.633Z,7.47
2019-05-22T20:50:43.418Z,9.37
2019-05-22T20:53:14.520Z,9.00
2019-05-22T20:55:44.033Z,8.30
2019-05-22T20:58:14.370Z,10.70
2019-05-22T21:00:43.966Z,11.43
2019-05-22T21:03:13.345Z,9.50
2019-05-22T21:05:44.031Z,10.40
2019-05-22T21:08:15.711Z,11.47
2019-05-22T21:10:47.975Z,10.37
2019-05-22T21:13:18.659Z,8.63
2019-05-22T21:15:49.999Z,11.83
2019-05-22T21:18:20.805Z,13.30
2019-05-22T21:20:54.749Z,9.60
2019-05-22T21:23:22.091Z,11.30
2019-05-22T21:25:52.322Z,9.43
2019-05-22T21:28:21.629Z,9.50
2019-05-22T21:30:53.311Z,9.40
2019-05-22T21:33:23.678Z,9.20
2019-05-22T21:35:52.919Z,11.03
2019-05-22T21:38:23.726Z,9.70
2019-05-22T21:40:54.985Z,10.43
2019-05-22T21:43:44.528Z,12.70
2019-05-22T21:46:13.784Z,9.10
2019-05-22T21:48:44.750Z,9.50
2019-05-22T21:51:32.757Z,12.47
2019-05-22T21:54:01.912Z,10.87
2019-05-22T21:56:30.638Z,12.10
2019-05-22T21:58:59.646Z,9.70
2019-05-22T22:01:36.590Z,9.20
2019-05-22T22:04:09.694Z,9.20
2019-05-22T22:06:38.902Z,10.60
2019-05-22T22:09:08.823Z,8.47
2019-05-22T22:11:37.763Z,8.73
2019-05-22T22:14:07.619Z,9.53
2019-05-22T22:16:36.224Z,9.43
2019-05-22T22:19:09.498Z,9.10
2019-05-22T22:21:39.952Z,9.50
2019-05-22T22:24:29.178Z,10.93
2019-05-22T22:26:58.489Z,7.60
2019-05-22T22:29:27.105Z,8.10
2019-05-22T22:31:58.387Z,10.47
2019-05-22T22:34:32.522Z,9.00
2019-05-22T22:37:03.257Z,9.43
2019-05-22T22:39:32.636Z,9.60
2019-05-22T22:42:01.210Z,8.40
2019-05-22T22:44:30.900Z,9.40
2019-05-22T22:47:02.704Z,11.03
2019-05-22T22:49:32.281Z,9.33
2019-05-22T22:52:01.906Z,9.23
2019-05-22T22:54:31.788Z,9.60
2019-05-22T22:57:02.297Z,8.80
2019-05-22T22:59:30.801Z,9.47
2019-05-22T23:02:01.890Z,9.23
2019-05-22T23:04:32.112Z,7.83
2019-05-22T23:07:04.602Z,10.70
2019-05-22T23:09:33.465Z,11.70
2019-05-22T23:12:03.170Z,10.67
2019-05-22T23:14:33.873Z,13.27
2019-05-22T23:17:02.893Z,11.03
2019-05-22T23:19:34.892Z,9.90
2019-05-22T23:22:03.607Z,10.93
2019-05-22T23:24:34.372Z,9.43
2019-05-22T23:27:03.760Z,9.07
2019-05-22T23:29:33.369Z,9.80
2019-05-22T23:32:03.945Z,8.83
2019-05-22T23:34:32.605Z,8.10
2019-05-22T23:37:02.886Z,9.47
2019-05-22T23:39:32.757Z,8.77
2019-05-22T23:42:04.896Z,11.97
2019-05-22T23:44:36.900Z,8.40
2019-05-22T23:47:07.570Z,8.70
2019-05-22T23:49:37.340Z,7.60
2019-05-22T23:52:08.230Z,8.87
2019-05-22T23:54:39.014Z,7.33
2019-05-22T23:57:09.421Z,8.63
2019-05-22T23:59:40.611Z,6.60
